Milan, Missouri
Current Conditions -  °F | °C
As of 7:55 AM on Friday 19 Dec 2014 (Local Time) from KIRK Reporting Station
Haze Haze  
Wind Chill: -5°   Ceiling: 5000
Heat Index: -2°   Visibility: 4mi
Dew Point: -3°   Wind: 6mph
Humidity: 92%   Direction: 80°E
Pressure: 30.28"   Gusts: NA
Location:  40.2°N, 93.13°W
Report Text: KIRK 191355Z AUTO 08005KT 4SM BR OVC050 M02/M03 A3028 RMK AO2 SLP269 T10171028
Loading
Personal Weather Stations






























Interactive Weather Map New forecast layout! Learn more

10-Day Weather Forecast

Advertisements
Track Severe Weather on mobile